sensor_id;sensor_type;location;lat;lon;timestamp;temperature;humidity
34833;DHT22;55941;50.800;4.342;2023-04-25T00:00:04;10.00;99.90
34833;DHT22;55941;50.800;4.342;2023-04-25T00:03:08;10.10;99.90
34833;DHT22;55941;50.800;4.342;2023-04-25T00:05:35;10.00;99.90
34833;DHT22;55941;50.800;4.342;2023-04-25T00:08:47;10.10;99.90
34833;DHT22;55941;50.800;4.342;2023-04-25T00:11:28;10.20;99.90
34833;DHT22;55941;50.800;4.342;2023-04-25T00:14:14;10.10;99.90
34833;DHT22;55941;50.800;4.342;2023-04-25T00:17:04;10.00;99.90
34833;DHT22;55941;50.800;4.342;2023-04-25T00:19:37;9.90;99.90
34833;DHT22;55941;50.800;4.342;2023-04-25T00:22:06;9.80;99.90
34833;DHT22;55941;50.800;4.342;2023-04-25T00:24:56;9.90;99.90
34833;DHT22;55941;50.800;4.342;2023-04-25T00:27:44;9.90;99.90
34833;DHT22;55941;50.800;4.342;2023-04-25T00:30:17;9.90;99.90
34833;DHT22;55941;50.800;4.342;2023-04-25T00:32:56;9.90;99.90
34833;DHT22;55941;50.800;4.342;2023-04-25T00:35:31;9.80;99.90
34833;DHT22;55941;50.800;4.342;2023-04-25T00:38:09;9.90;99.90
34833;DHT22;55941;50.800;4.342;2023-04-25T00:40:47;10.00;99.90
34833;DHT22;55941;50.800;4.342;2023-04-25T00:43:41;9.90;99.90
34833;DHT22;55941;50.800;4.342;2023-04-25T00:46:14;9.90;99.90
34833;DHT22;55941;50.800;4.342;2023-04-25T00:48:54;9.90;99.90
34833;DHT22;55941;50.800;4.342;2023-04-25T00:51:40;9.90;99.90
34833;DHT22;55941;50.800;4.342;2023-04-25T00:54:33;9.80;99.90
34833;DHT22;55941;50.800;4.342;2023-04-25T00:57:34;9.70;99.90
34833;DHT22;55941;50.800;4.342;2023-04-25T01:00:13;9.70;99.90
34833;DHT22;55941;50.800;4.342;2023-04-25T01:03:06;9.70;99.90
34833;DHT22;55941;50.800;4.342;2023-04-25T01:05:35;9.70;99.90
34833;DHT22;55941;50.800;4.342;2023-04-25T01:08:01;9.50;99.90
34833;DHT22;55941;50.800;4.342;2023-04-25T01:10:36;9.50;99.90
34833;DHT22;55941;50.800;4.342;2023-04-25T01:13:09;9.50;99.90
34833;DHT22;55941;50.800;4.342;2023-04-25T01:15:48;9.40;99.90
34833;DHT22;55941;50.800;4.342;2023-04-25T01:18:32;9.50;99.90
34833;DHT22;55941;50.800;4.342;2023-04-25T01:21:30;9.50;99.90
34833;DHT22;55941;50.800;4.342;2023-04-25T01:23:56;9.40;99.90
34833;DHT22;55941;50.800;4.342;2023-04-25T01:26:23;9.40;99.90
34833;DHT22;55941;50.800;4.342;2023-04-25T01:28:58;9.40;99.90
34833;DHT22;55941;50.800;4.342;2023-04-25T01:31:33;9.50;99.90
34833;DHT22;55941;50.800;4.342;2023-04-25T01:34:04;9.30;99.90
34833;DHT22;55941;50.800;4.342;2023-04-25T01:37:00;9.40;99.90
34833;DHT22;55941;50.800;4.342;2023-04-25T01:39:46;9.40;99.90
34833;DHT22;55941;50.800;4.342;2023-04-25T01:42:25;9.40;99.90
34833;DHT22;55941;50.800;4.342;2023-04-25T01:44:54;9.30;99.90
34833;DHT22;55941;50.800;4.342;2023-04-25T01:47:28;9.30;99.90
34833;DHT22;55941;50.800;4.342;2023-04-25T01:50:08;9.30;99.90
34833;DHT22;55941;50.800;4.342;2023-04-25T01:52:37;9.30;99.90
34833;DHT22;55941;50.800;4.342;2023-04-25T01:55:30;9.30;99.90
34833;DHT22;55941;50.800;4.342;2023-04-25T01:58:02;9.30;99.90
34833;DHT22;55941;50.800;4.342;2023-04-25T02:00:34;9.40;99.90
34833;DHT22;55941;50.800;4.342;2023-04-25T02:06:07;9.40;99.90
34833;DHT22;55941;50.800;4.342;2023-04-25T02:08:37;9.60;99.90
34833;DHT22;55941;50.800;4.342;2023-04-25T02:11:03;9.50;99.90
34833;DHT22;55941;50.800;4.342;2023-04-25T02:13:36;9.20;99.90
34833;DHT22;55941;50.800;4.342;2023-04-25T02:16:12;9.30;99.90
34833;DHT22;55941;50.800;4.342;2023-04-25T02:18:45;9.20;99.90
34833;DHT22;55941;50.800;4.342;2023-04-25T02:21:25;9.30;99.90
34833;DHT22;55941;50.800;4.342;2023-04-25T02:23:56;9.30;99.90
34833;DHT22;55941;50.800;4.342;2023-04-25T02:26:33;9.20;99.90
34833;DHT22;55941;50.800;4.342;2023-04-25T02:29:44;9.20;99.90
34833;DHT22;55941;50.800;4.342;2023-04-25T02:32:19;9.10;99.90
34833;DHT22;55941;50.800;4.342;2023-04-25T02:34:53;9.10;99.90
34833;DHT22;55941;50.800;4.342;2023-04-25T02:37:45;9.00;99.90
34833;DHT22;55941;50.800;4.342;2023-04-25T02:40:18;9.10;99.90
34833;DHT22;55941;50.800;4.342;2023-04-25T02:42:48;9.00;99.90
34833;DHT22;55941;50.800;4.342;2023-04-25T02:45:20;9.00;99.90
34833;DHT22;55941;50.800;4.342;2023-04-25T02:48:02;9.00;99.90
34833;DHT22;55941;50.800;4.342;2023-04-25T02:50:28;9.10;99.90
34833;DHT22;55941;50.800;4.342;2023-04-25T02:53:06;9.00;99.90
34833;DHT22;55941;50.800;4.342;2023-04-25T02:55:54;9.00;99.90
34833;DHT22;55941;50.800;4.342;2023-04-25T02:58:28;9.10;99.90
34833;DHT22;55941;50.800;4.342;2023-04-25T03:01:04;9.10;99.90
34833;DHT22;55941;50.800;4.342;2023-04-25T03:03:42;9.00;99.90
34833;DHT22;55941;50.800;4.342;2023-04-25T03:06:13;9.00;99.90
34833;DHT22;55941;50.800;4.342;2023-04-25T03:08:45;9.10;99.90
34833;DHT22;55941;50.800;4.342;2023-04-25T03:11:14;9.00;99.90
34833;DHT22;55941;50.800;4.342;2023-04-25T03:13:45;9.10;99.90
34833;DHT22;55941;50.800;4.342;2023-04-25T03:16:24;9.00;99.90
34833;DHT22;55941;50.800;4.342;2023-04-25T03:18:51;9.10;99.90
34833;DHT22;55941;50.800;4.342;2023-04-25T03:21:17;9.20;99.90
34833;DHT22;55941;50.800;4.342;2023-04-25T03:23:46;9.10;99.90
34833;DHT22;55941;50.800;4.342;2023-04-25T03:26:19;9.10;99.90
34833;DHT22;55941;50.800;4.342;2023-04-25T03:29:00;9.20;99.90
34833;DHT22;55941;50.800;4.342;2023-04-25T03:31:32;9.20;99.90
34833;DHT22;55941;50.800;4.342;2023-04-25T03:34:08;9.30;99.90
34833;DHT22;55941;50.800;4.342;2023-04-25T03:37:02;9.20;99.90
34833;DHT22;55941;50.800;4.342;2023-04-25T03:39:27;9.10;99.90
34833;DHT22;55941;50.800;4.342;2023-04-25T03:41:59;9.10;99.90
34833;DHT22;55941;50.800;4.342;2023-04-25T03:44:39;9.10;99.90
34833;DHT22;55941;50.800;4.342;2023-04-25T03:47:25;9.00;99.90
34833;DHT22;55941;50.800;4.342;2023-04-25T03:50:12;9.00;99.90
34833;DHT22;55941;50.800;4.342;2023-04-25T03:53:01;9.00;99.90
34833;DHT22;55941;50.800;4.342;2023-04-25T03:55:46;8.90;99.90
34833;DHT22;55941;50.800;4.342;2023-04-25T03:58:25;8.90;99.90
34833;DHT22;55941;50.800;4.342;2023-04-25T04:01:01;8.90;99.90
34833;DHT22;55941;50.800;4.342;2023-04-25T04:03:46;8.80;99.90
34833;DHT22;55941;50.800;4.342;2023-04-25T04:06:28;8.70;99.90
34833;DHT22;55941;50.800;4.342;2023-04-25T04:09:00;8.80;99.90
34833;DHT22;55941;50.800;4.342;2023-04-25T04:11:33;8.90;99.90
34833;DHT22;55941;50.800;4.342;2023-04-25T04:17:02;8.80;99.90
34833;DHT22;55941;50.800;4.342;2023-04-25T04:22:25;8.70;99.90
34833;DHT22;55941;50.800;4.342;2023-04-25T04:24:53;8.70;99.90
34833;DHT22;55941;50.800;4.342;2023-04-25T04:27:24;8.70;99.90
34833;DHT22;55941;50.800;4.342;2023-04-25T04:29:58;8.70;99.90
34833;DHT22;55941;50.800;4.342;2023-04-25T04:32:32;8.60;99.90
34833;DHT22;55941;50.800;4.342;2023-04-25T04:35:34;8.60;99.90
34833;DHT22;55941;50.800;4.342;2023-04-25T04:38:14;8.60;99.90
34833;DHT22;55941;50.800;4.342;2023-04-25T04:40:43;8.80;99.90
34833;DHT22;55941;50.800;4.342;2023-04-25T04:43:37;8.70;99.90
34833;DHT22;55941;50.800;4.342;2023-04-25T04:46:08;8.70;99.90
34833;DHT22;55941;50.800;4.342;2023-04-25T04:48:41;8.80;99.90
34833;DHT22;55941;50.800;4.342;2023-04-25T04:51:19;8.70;99.90
34833;DHT22;55941;50.800;4.342;2023-04-25T04:53:50;8.80;99.90
34833;DHT22;55941;50.800;4.342;2023-04-25T04:56:33;8.80;99.90
34833;DHT22;55941;50.800;4.342;2023-04-25T04:58:59;8.80;99.90
34833;DHT22;55941;50.800;4.342;2023-04-25T05:01:37;8.80;99.90
34833;DHT22;55941;50.800;4.342;2023-04-25T05:04:12;8.90;99.90
34833;DHT22;55941;50.800;4.342;2023-04-25T05:06:43;8.90;99.90
34833;DHT22;55941;50.800;4.342;2023-04-25T05:09:32;8.90;99.90
34833;DHT22;55941;50.800;4.342;2023-04-25T05:12:16;8.90;99.90
34833;DHT22;55941;50.800;4.342;2023-04-25T05:15:00;8.90;99.90
34833;DHT22;55941;50.800;4.342;2023-04-25T05:17:27;8.90;99.90
34833;DHT22;55941;50.800;4.342;2023-04-25T05:19:57;8.90;99.90
34833;DHT22;55941;50.800;4.342;2023-04-25T05:22:33;8.80;99.90
34833;DHT22;55941;50.800;4.342;2023-04-25T05:25:13;8.80;99.90
34833;DHT22;55941;50.800;4.342;2023-04-25T05:27:59;8.80;99.90
34833;DHT22;55941;50.800;4.342;2023-04-25T05:30:42;8.80;99.90
34833;DHT22;55941;50.800;4.342;2023-04-25T05:33:14;8.80;99.90
34833;DHT22;55941;50.800;4.342;2023-04-25T05:35:43;8.70;99.90
34833;DHT22;55941;50.800;4.342;2023-04-25T05:38:23;8.70;99.90
34833;DHT22;55941;50.800;4.342;2023-04-25T05:40:59;8.70;99.90
34833;DHT22;55941;50.800;4.342;2023-04-25T05:43:45;8.70;99.90
34833;DHT22;55941;50.800;4.342;2023-04-25T05:46:30;8.70;99.90
34833;DHT22;55941;50.800;4.342;2023-04-25T05:49:07;8.80;99.90
34833;DHT22;55941;50.800;4.342;2023-04-25T05:51:33;8.80;99.90
34833;DHT22;55941;50.800;4.342;2023-04-25T05:53:59;8.80;99.90
34833;DHT22;55941;50.800;4.342;2023-04-25T05:56:26;8.70;99.90
34833;DHT22;55941;50.800;4.342;2023-04-25T05:58:52;8.60;99.90
34833;DHT22;55941;50.800;4.342;2023-04-25T06:01:18;8.50;99.90
34833;DHT22;55941;50.800;4.342;2023-04-25T06:03:44;8.60;99.90
34833;DHT22;55941;50.800;4.342;2023-04-25T06:06:11;8.60;99.90
34833;DHT22;55941;50.800;4.342;2023-04-25T06:08:40;8.60;99.90
34833;DHT22;55941;50.800;4.342;2023-04-25T06:11:06;8.60;99.90
34833;DHT22;55941;50.800;4.342;2023-04-25T06:13:32;8.70;99.90
34833;DHT22;55941;50.800;4.342;2023-04-25T06:15:58;8.80;99.90
34833;DHT22;55941;50.800;4.342;2023-04-25T06:18:24;8.80;99.90
34833;DHT22;55941;50.800;4.342;2023-04-25T06:20:51;9.00;99.90
34833;DHT22;55941;50.800;4.342;2023-04-25T06:23:18;8.90;99.90
34833;DHT22;55941;50.800;4.342;2023-04-25T06:25:45;9.00;99.90
34833;DHT22;55941;50.800;4.342;2023-04-25T06:28:11;9.10;99.90
34833;DHT22;55941;50.800;4.342;2023-04-25T06:30:40;9.20;99.90
34833;DHT22;55941;50.800;4.342;2023-04-25T06:33:06;9.30;99.90
34833;DHT22;55941;50.800;4.342;2023-04-25T06:35:31;9.50;99.90
34833;DHT22;55941;50.800;4.342;2023-04-25T06:37:58;9.50;99.90
34833;DHT22;55941;50.800;4.342;2023-04-25T06:40:24;9.40;99.90
34833;DHT22;55941;50.800;4.342;2023-04-25T06:42:56;9.50;99.90
34833;DHT22;55941;50.800;4.342;2023-04-25T06:45:21;9.40;99.90
34833;DHT22;55941;50.800;4.342;2023-04-25T06:47:49;9.40;99.90
34833;DHT22;55941;50.800;4.342;2023-04-25T06:50:15;9.40;99.90
34833;DHT22;55941;50.800;4.342;2023-04-25T06:52:44;9.60;99.90
34833;DHT22;55941;50.800;4.342;2023-04-25T06:55:09;9.40;99.90
34833;DHT22;55941;50.800;4.342;2023-04-25T06:57:35;9.50;99.90
34833;DHT22;55941;50.800;4.342;2023-04-25T07:00:03;9.40;99.90
34833;DHT22;55941;50.800;4.342;2023-04-25T07:02:31;9.40;99.90
34833;DHT22;55941;50.800;4.342;2023-04-25T07:04:57;9.50;99.90
34833;DHT22;55941;50.800;4.342;2023-04-25T07:07:25;9.60;99.90
34833;DHT22;55941;50.800;4.342;2023-04-25T07:09:53;9.60;99.90
34833;DHT22;55941;50.800;4.342;2023-04-25T07:12:21;9.70;99.90
34833;DHT22;55941;50.800;4.342;2023-04-25T07:14:48;9.70;99.90
34833;DHT22;55941;50.800;4.342;2023-04-25T07:17:15;9.70;99.90
34833;DHT22;55941;50.800;4.342;2023-04-25T07:19:44;9.70;99.90
34833;DHT22;55941;50.800;4.342;2023-04-25T07:22:10;9.80;99.90
34833;DHT22;55941;50.800;4.342;2023-04-25T07:24:37;9.80;99.90
34833;DHT22;55941;50.800;4.342;2023-04-25T07:27:06;9.80;99.90
34833;DHT22;55941;50.800;4.342;2023-04-25T07:29:36;9.90;99.90
34833;DHT22;55941;50.800;4.342;2023-04-25T07:32:03;9.90;99.90
34833;DHT22;55941;50.800;4.342;2023-04-25T07:34:32;10.10;99.90
34833;DHT22;55941;50.800;4.342;2023-04-25T07:37:04;10.10;99.90
34833;DHT22;55941;50.800;4.342;2023-04-25T07:39:30;10.10;99.90
34833;DHT22;55941;50.800;4.342;2023-04-25T07:41:57;10.20;99.90
34833;DHT22;55941;50.800;4.342;2023-04-25T07:44:26;10.30;99.90
34833;DHT22;55941;50.800;4.342;2023-04-25T07:46:51;10.40;99.90
34833;DHT22;55941;50.800;4.342;2023-04-25T07:49:20;10.40;99.90
34833;DHT22;55941;50.800;4.342;2023-04-25T07:51:47;10.40;99.90
34833;DHT22;55941;50.800;4.342;2023-04-25T07:54:14;10.40;99.90
34833;DHT22;55941;50.800;4.342;2023-04-25T07:56:43;10.40;99.90
34833;DHT22;55941;50.800;4.342;2023-04-25T07:59:09;10.60;99.90
34833;DHT22;55941;50.800;4.342;2023-04-25T08:01:36;10.70;99.90
34833;DHT22;55941;50.800;4.342;2023-04-25T08:04:04;10.80;99.90
34833;DHT22;55941;50.800;4.342;2023-04-25T08:06:30;10.90;99.90
34833;DHT22;55941;50.800;4.342;2023-04-25T08:08:56;10.80;99.90
34833;DHT22;55941;50.800;4.342;2023-04-25T08:11:28;10.60;99.90
34833;DHT22;55941;50.800;4.342;2023-04-25T08:13:56;10.60;99.90
34833;DHT22;55941;50.800;4.342;2023-04-25T08:16:21;10.40;99.90
34833;DHT22;55941;50.800;4.342;2023-04-25T08:18:47;10.50;99.90
34833;DHT22;55941;50.800;4.342;2023-04-25T08:21:24;10.60;99.90
34833;DHT22;55941;50.800;4.342;2023-04-25T08:23:57;10.80;99.90
34833;DHT22;55941;50.800;4.342;2023-04-25T08:26:24;10.90;99.90
34833;DHT22;55941;50.800;4.342;2023-04-25T08:28:51;11.00;99.90
34833;DHT22;55941;50.800;4.342;2023-04-25T08:31:20;11.00;99.90
34833;DHT22;55941;50.800;4.342;2023-04-25T08:33:47;11.00;99.90
34833;DHT22;55941;50.800;4.342;2023-04-25T08:36:16;11.00;99.90
34833;DHT22;55941;50.800;4.342;2023-04-25T08:38:44;11.10;99.90
34833;DHT22;55941;50.800;4.342;2023-04-25T08:41:12;11.00;99.90
34833;DHT22;55941;50.800;4.342;2023-04-25T08:43:42;11.10;99.90
34833;DHT22;55941;50.800;4.342;2023-04-25T08:46:12;11.00;99.90
34833;DHT22;55941;50.800;4.342;2023-04-25T08:48:46;11.10;99.90
34833;DHT22;55941;50.800;4.342;2023-04-25T08:51:21;11.10;99.90
34833;DHT22;55941;50.800;4.342;2023-04-25T08:53:49;11.20;99.90
34833;DHT22;55941;50.800;4.342;2023-04-25T08:56:18;11.40;99.90
34833;DHT22;55941;50.800;4.342;2023-04-25T08:58:50;11.40;99.90
34833;DHT22;55941;50.800;4.342;2023-04-25T09:01:19;11.50;99.90
34833;DHT22;55941;50.800;4.342;2023-04-25T09:03:45;11.60;99.90
34833;DHT22;55941;50.800;4.342;2023-04-25T09:06:12;11.80;99.90
34833;DHT22;55941;50.800;4.342;2023-04-25T09:08:38;12.10;99.90
34833;DHT22;55941;50.800;4.342;2023-04-25T09:11:06;12.30;99.90
34833;DHT22;55941;50.800;4.342;2023-04-25T09:13:32;12.40;99.90
34833;DHT22;55941;50.800;4.342;2023-04-25T09:15:58;12.30;99.90
34833;DHT22;55941;50.800;4.342;2023-04-25T09:18:30;12.30;99.90
34833;DHT22;55941;50.800;4.342;2023-04-25T09:23:39;12.40;99.90
34833;DHT22;55941;50.800;4.342;2023-04-25T09:26:08;12.50;99.90
34833;DHT22;55941;50.800;4.342;2023-04-25T09:28:36;12.20;99.90
34833;DHT22;55941;50.800;4.342;2023-04-25T09:31:07;12.10;99.90
34833;DHT22;55941;50.800;4.342;2023-04-25T09:33:36;12.00;99.90
34833;DHT22;55941;50.800;4.342;2023-04-25T09:36:06;11.70;99.90
34833;DHT22;55941;50.800;4.342;2023-04-25T09:38:44;11.70;99.90
34833;DHT22;55941;50.800;4.342;2023-04-25T09:41:12;11.70;99.90
34833;DHT22;55941;50.800;4.342;2023-04-25T09:43:39;11.70;99.90
34833;DHT22;55941;50.800;4.342;2023-04-25T09:46:09;11.80;99.90
34833;DHT22;55941;50.800;4.342;2023-04-25T09:48:37;11.90;99.90
34833;DHT22;55941;50.800;4.342;2023-04-25T09:51:09;11.90;99.90
34833;DHT22;55941;50.800;4.342;2023-04-25T09:53:39;11.90;99.90
34833;DHT22;55941;50.800;4.342;2023-04-25T09:56:28;11.90;99.90
34833;DHT22;55941;50.800;4.342;2023-04-25T09:59:07;11.80;99.90
34833;DHT22;55941;50.800;4.342;2023-04-25T10:02:00;11.80;99.90
34833;DHT22;55941;50.800;4.342;2023-04-25T10:04:29;11.60;99.90
34833;DHT22;55941;50.800;4.342;2023-04-25T10:06:56;11.60;99.90
34833;DHT22;55941;50.800;4.342;2023-04-25T10:09:26;11.60;99.90
34833;DHT22;55941;50.800;4.342;2023-04-25T10:11:59;11.80;99.90
34833;DHT22;55941;50.800;4.342;2023-04-25T10:14:26;11.80;99.90
34833;DHT22;55941;50.800;4.342;2023-04-25T10:16:54;11.80;99.90
34833;DHT22;55941;50.800;4.342;2023-04-25T10:19:22;11.90;99.90
34833;DHT22;55941;50.800;4.342;2023-04-25T10:22:18;12.00;99.90
34833;DHT22;55941;50.800;4.342;2023-04-25T10:24:46;12.20;99.90
34833;DHT22;55941;50.800;4.342;2023-04-25T10:27:16;12.50;99.90
34833;DHT22;55941;50.800;4.342;2023-04-25T10:29:45;12.60;99.90
34833;DHT22;55941;50.800;4.342;2023-04-25T10:32:26;12.60;99.90
34833;DHT22;55941;50.800;4.342;2023-04-25T10:34:52;12.50;99.90
34833;DHT22;55941;50.800;4.342;2023-04-25T10:37:21;12.40;98.90
34833;DHT22;55941;50.800;4.342;2023-04-25T10:39:54;12.70;98.80
34833;DHT22;55941;50.800;4.342;2023-04-25T10:42:24;13.00;97.90
34833;DHT22;55941;50.800;4.342;2023-04-25T10:45:05;13.40;98.10
34833;DHT22;55941;50.800;4.342;2023-04-25T10:47:43;13.60;97.50
34833;DHT22;55941;50.800;4.342;2023-04-25T10:50:15;13.90;96.10
34833;DHT22;55941;50.800;4.342;2023-04-25T10:52:45;13.90;94.40
34833;DHT22;55941;50.800;4.342;2023-04-25T10:55:13;13.90;95.00
34833;DHT22;55941;50.800;4.342;2023-04-25T10:58:03;13.60;94.50
34833;DHT22;55941;50.800;4.342;2023-04-25T11:00:29;13.40;95.90
34833;DHT22;55941;50.800;4.342;2023-04-25T11:03:02;13.00;96.70
34833;DHT22;55941;50.800;4.342;2023-04-25T11:05:36;12.80;98.10
34833;DHT22;55941;50.800;4.342;2023-04-25T11:08:12;11.90;99.90
34833;DHT22;55941;50.800;4.342;2023-04-25T11:10:42;11.20;99.90
34833;DHT22;55941;50.800;4.342;2023-04-25T11:13:09;10.90;99.90
34833;DHT22;55941;50.800;4.342;2023-04-25T11:15:37;10.60;99.90
34833;DHT22;55941;50.800;4.342;2023-04-25T11:18:05;10.40;99.90
34833;DHT22;55941;50.800;4.342;2023-04-25T11:20:31;10.20;99.90
34833;DHT22;55941;50.800;4.342;2023-04-25T11:22:58;10.20;99.90
34833;DHT22;55941;50.800;4.342;2023-04-25T11:25:31;10.00;99.90
34833;DHT22;55941;50.800;4.342;2023-04-25T11:27:59;10.20;99.90
34833;DHT22;55941;50.800;4.342;2023-04-25T11:30:27;10.50;99.90
34833;DHT22;55941;50.800;4.342;2023-04-25T11:32:53;10.70;99.90
34833;DHT22;55941;50.800;4.342;2023-04-25T11:35:20;10.90;99.90
34833;DHT22;55941;50.800;4.342;2023-04-25T11:37:49;11.10;99.90
34833;DHT22;55941;50.800;4.342;2023-04-25T11:40:15;11.20;99.90
34833;DHT22;55941;50.800;4.342;2023-04-25T11:43:09;11.50;99.90
34833;DHT22;55941;50.800;4.342;2023-04-25T11:45:38;11.70;99.90
34833;DHT22;55941;50.800;4.342;2023-04-25T11:48:14;11.70;99.90
34833;DHT22;55941;50.800;4.342;2023-04-25T11:50:40;11.50;99.90
34833;DHT22;55941;50.800;4.342;2023-04-25T11:53:06;11.50;99.90
34833;DHT22;55941;50.800;4.342;2023-04-25T11:55:36;11.70;99.90
34833;DHT22;55941;50.800;4.342;2023-04-25T11:58:06;11.70;99.90
34833;DHT22;55941;50.800;4.342;2023-04-25T12:00:43;11.90;99.90
34833;DHT22;55941;50.800;4.342;2023-04-25T12:03:09;12.00;99.90
34833;DHT22;55941;50.800;4.342;2023-04-25T12:05:36;12.00;99.90
34833;DHT22;55941;50.800;4.342;2023-04-25T12:08:14;12.30;99.90
34833;DHT22;55941;50.800;4.342;2023-04-25T12:10:41;13.00;99.90
34833;DHT22;55941;50.800;4.342;2023-04-25T12:13:23;13.80;98.10
34833;DHT22;55941;50.800;4.342;2023-04-25T12:15:49;14.10;96.60
34833;DHT22;55941;50.800;4.342;2023-04-25T12:18:25;14.30;95.90
34833;DHT22;55941;50.800;4.342;2023-04-25T12:21:04;14.20;95.30
34833;DHT22;55941;50.800;4.342;2023-04-25T12:23:30;14.50;95.50
34833;DHT22;55941;50.800;4.342;2023-04-25T12:25:56;14.80;94.80
34833;DHT22;55941;50.800;4.342;2023-04-25T12:28:24;14.90;94.80
34833;DHT22;55941;50.800;4.342;2023-04-25T12:31:06;14.70;94.90
34833;DHT22;55941;50.800;4.342;2023-04-25T12:33:51;14.80;95.70
34833;DHT22;55941;50.800;4.342;2023-04-25T12:36:19;15.10;94.80
34833;DHT22;55941;50.800;4.342;2023-04-25T12:38:47;15.20;95.50
34833;DHT22;55941;50.800;4.342;2023-04-25T12:41:14;15.10;94.70
34833;DHT22;55941;50.800;4.342;2023-04-25T12:43:46;14.70;95.30
34833;DHT22;55941;50.800;4.342;2023-04-25T12:46:11;14.60;96.20
34833;DHT22;55941;50.800;4.342;2023-04-25T12:48:37;14.70;94.90
34833;DHT22;55941;50.800;4.342;2023-04-25T12:51:06;14.50;93.00
34833;DHT22;55941;50.800;4.342;2023-04-25T12:53:32;15.20;92.90
34833;DHT22;55941;50.800;4.342;2023-04-25T12:55:58;16.10;91.90
34833;DHT22;55941;50.800;4.342;2023-04-25T12:58:28;17.40;89.50
34833;DHT22;55941;50.800;4.342;2023-04-25T13:00:58;18.50;86.50
34833;DHT22;55941;50.800;4.342;2023-04-25T13:03:24;18.90;83.40
34833;DHT22;55941;50.800;4.342;2023-04-25T13:05:52;19.30;81.70
34833;DHT22;55941;50.800;4.342;2023-04-25T13:08:23;19.70;78.30
34833;DHT22;55941;50.800;4.342;2023-04-25T13:10:48;19.30;77.30
34833;DHT22;55941;50.800;4.342;2023-04-25T13:13:17;18.80;76.30
34833;DHT22;55941;50.800;4.342;2023-04-25T13:15:46;18.70;77.20
34833;DHT22;55941;50.800;4.342;2023-04-25T13:18:15;19.20;79.60
34833;DHT22;55941;50.800;4.342;2023-04-25T13:20:41;19.20;76.60
34833;DHT22;55941;50.800;4.342;2023-04-25T13:23:06;18.50;76.80
34833;DHT22;55941;50.800;4.342;2023-04-25T13:25:35;18.00;77.80
34833;DHT22;55941;50.800;4.342;2023-04-25T13:28:08;17.60;78.20
34833;DHT22;55941;50.800;4.342;2023-04-25T13:30:36;17.10;78.20
34833;DHT22;55941;50.800;4.342;2023-04-25T13:33:04;16.80;80.20
34833;DHT22;55941;50.800;4.342;2023-04-25T13:35:33;16.60;80.40
34833;DHT22;55941;50.800;4.342;2023-04-25T13:37:59;16.40;80.60
34833;DHT22;55941;50.800;4.342;2023-04-25T13:40:27;16.30;81.30
34833;DHT22;55941;50.800;4.342;2023-04-25T13:42:56;16.80;81.00
34833;DHT22;55941;50.800;4.342;2023-04-25T13:45:24;17.90;76.60
34833;DHT22;55941;50.800;4.342;2023-04-25T13:47:51;18.90;70.50
34833;DHT22;55941;50.800;4.342;2023-04-25T13:50:19;19.60;67.00
34833;DHT22;55941;50.800;4.342;2023-04-25T13:52:48;19.90;63.70
34833;DHT22;55941;50.800;4.342;2023-04-25T13:55:16;19.40;61.40
34833;DHT22;55941;50.800;4.342;2023-04-25T13:57:45;20.00;61.10
34833;DHT22;55941;50.800;4.342;2023-04-25T14:00:14;19.40;61.30
34833;DHT22;55941;50.800;4.342;2023-04-25T14:02:43;20.50;63.90
34833;DHT22;55941;50.800;4.342;2023-04-25T14:05:10;21.50;63.30
34833;DHT22;55941;50.800;4.342;2023-04-25T14:07:37;21.60;61.80
34833;DHT22;55941;50.800;4.342;2023-04-25T14:10:06;20.90;64.20
34833;DHT22;55941;50.800;4.342;2023-04-25T14:12:32;21.10;64.70
34833;DHT22;55941;50.800;4.342;2023-04-25T14:14:58;21.20;64.10
34833;DHT22;55941;50.800;4.342;2023-04-25T14:17:24;20.70;64.50
34833;DHT22;55941;50.800;4.342;2023-04-25T14:19:51;19.90;65.80
34833;DHT22;55941;50.800;4.342;2023-04-25T14:22:18;20.20;65.80
34833;DHT22;55941;50.800;4.342;2023-04-25T14:24:45;19.70;64.80
34833;DHT22;55941;50.800;4.342;2023-04-25T14:27:15;18.90;65.70
34833;DHT22;55941;50.800;4.342;2023-04-25T14:29:42;18.60;65.40
34833;DHT22;55941;50.800;4.342;2023-04-25T14:32:13;18.10;65.80
34833;DHT22;55941;50.800;4.342;2023-04-25T14:34:39;18.00;68.00
34833;DHT22;55941;50.800;4.342;2023-04-25T14:37:07;18.00;68.50
34833;DHT22;55941;50.800;4.342;2023-04-25T14:39:33;18.00;67.20
34833;DHT22;55941;50.800;4.342;2023-04-25T14:42:01;18.80;66.00
34833;DHT22;55941;50.800;4.342;2023-04-25T14:44:27;20.10;62.50
34833;DHT22;55941;50.800;4.342;2023-04-25T14:46:52;20.20;60.70
34833;DHT22;55941;50.800;4.342;2023-04-25T14:49:18;20.40;59.90
34833;DHT22;55941;50.800;4.342;2023-04-25T14:51:54;20.90;59.70
34833;DHT22;55941;50.800;4.342;2023-04-25T14:54:21;20.90;59.10
34833;DHT22;55941;50.800;4.342;2023-04-25T14:56:48;20.20;59.50
34833;DHT22;55941;50.800;4.342;2023-04-25T14:59:15;19.60;61.90
34833;DHT22;55941;50.800;4.342;2023-04-25T15:01:42;19.20;63.70
34833;DHT22;55941;50.800;4.342;2023-04-25T15:04:08;19.60;64.50
34833;DHT22;55941;50.800;4.342;2023-04-25T15:06:33;19.50;64.30
34833;DHT22;55941;50.800;4.342;2023-04-25T15:09:00;18.40;66.20
34833;DHT22;55941;50.800;4.342;2023-04-25T15:11:27;17.80;67.10
34833;DHT22;55941;50.800;4.342;2023-04-25T15:13:53;17.60;68.40
34833;DHT22;55941;50.800;4.342;2023-04-25T15:16:20;17.50;68.40
34833;DHT22;55941;50.800;4.342;2023-04-25T15:18:50;17.60;67.50
34833;DHT22;55941;50.800;4.342;2023-04-25T15:21:17;18.50;65.80
34833;DHT22;55941;50.800;4.342;2023-04-25T15:23:45;18.60;64.50
34833;DHT22;55941;50.800;4.342;2023-04-25T15:26:13;19.70;64.50
34833;DHT22;55941;50.800;4.342;2023-04-25T15:28:40;20.70;61.70
34833;DHT22;55941;50.800;4.342;2023-04-25T15:31:07;21.80;58.60
34833;DHT22;55941;50.800;4.342;2023-04-25T15:33:33;21.90;57.30
34833;DHT22;55941;50.800;4.342;2023-04-25T15:35:59;20.50;59.20
34833;DHT22;55941;50.800;4.342;2023-04-25T15:38:27;19.70;60.90
34833;DHT22;55941;50.800;4.342;2023-04-25T15:40:52;18.80;62.20
34833;DHT22;55941;50.800;4.342;2023-04-25T15:43:19;18.30;63.50
34833;DHT22;55941;50.800;4.342;2023-04-25T15:45:46;17.80;63.80
34833;DHT22;55941;50.800;4.342;2023-04-25T15:48:12;17.40;65.00
34833;DHT22;55941;50.800;4.342;2023-04-25T15:50:40;17.10;66.50
34833;DHT22;55941;50.800;4.342;2023-04-25T15:53:06;16.70;67.20
34833;DHT22;55941;50.800;4.342;2023-04-25T15:55:33;16.40;67.70
34833;DHT22;55941;50.800;4.342;2023-04-25T15:57:59;16.20;68.60
34833;DHT22;55941;50.800;4.342;2023-04-25T16:00:25;15.70;70.80
34833;DHT22;55941;50.800;4.342;2023-04-25T16:02:52;15.40;71.70
34833;DHT22;55941;50.800;4.342;2023-04-25T16:05:18;15.20;72.10
34833;DHT22;55941;50.800;4.342;2023-04-25T16:07:46;15.00;72.80
34833;DHT22;55941;50.800;4.342;2023-04-25T16:10:17;14.70;73.50
34833;DHT22;55941;50.800;4.342;2023-04-25T16:12:46;14.50;74.60
34833;DHT22;55941;50.800;4.342;2023-04-25T16:15:13;14.50;75.60
34833;DHT22;55941;50.800;4.342;2023-04-25T16:17:42;14.40;74.70